sensor_id;sensor_type;location;lat;lon;timestamp;pressure;altitude;pressure_sealevel;temperature;humidity
66430;BME280;53242;51.694;10.006;2023-12-14T00:00:09;98515.47;;;6.25;100.00
66430;BME280;53242;51.694;10.006;2023-12-14T00:02:31;98515.03;;;6.22;100.00
66430;BME280;53242;51.694;10.006;2023-12-14T00:04:54;98521.53;;;6.26;100.00
66430;BME280;53242;51.694;10.006;2023-12-14T00:07:16;98527.16;;;6.30;100.00
66430;BME280;53242;51.694;10.006;2023-12-14T00:09:38;98531.69;;;6.14;100.00
66430;BME280;53242;51.694;10.006;2023-12-14T00:12:01;98531.13;;;6.19;100.00
66430;BME280;53242;51.694;10.006;2023-12-14T00:14:23;98541.56;;;6.12;100.00
66430;BME280;53242;51.694;10.006;2023-12-14T00:16:45;98533.06;;;6.10;100.00
66430;BME280;53242;51.694;10.006;2023-12-14T00:19:08;98540.69;;;6.05;100.00
66430;BME280;53242;51.694;10.006;2023-12-14T00:21:30;98538.50;;;6.08;100.00
66430;BME280;53242;51.694;10.006;2023-12-14T00:23:53;98543.59;;;5.95;100.00
66430;BME280;53242;51.694;10.006;2023-12-14T00:26:15;98538.53;;;5.93;100.00
66430;BME280;53242;51.694;10.006;2023-12-14T00:28:39;98551.47;;;5.95;100.00
66430;BME280;53242;51.694;10.006;2023-12-14T00:31:01;98556.41;;;6.05;100.00
66430;BME280;53242;51.694;10.006;2023-12-14T00:33:24;98561.84;;;6.03;100.00
66430;BME280;53242;51.694;10.006;2023-12-14T00:35:46;98560.13;;;5.96;100.00
66430;BME280;53242;51.694;10.006;2023-12-14T00:38:09;98570.72;;;5.87;100.00
66430;BME280;53242;51.694;10.006;2023-12-14T00:40:31;98571.72;;;5.86;100.00
66430;BME280;53242;51.694;10.006;2023-12-14T00:42:53;98571.34;;;5.89;100.00
66430;BME280;53242;51.694;10.006;2023-12-14T00:45:16;98580.19;;;5.88;100.00
66430;BME280;53242;51.694;10.006;2023-12-14T00:47:38;98587.69;;;5.91;100.00
66430;BME280;53242;51.694;10.006;2023-12-14T00:50:01;98585.00;;;5.85;100.00
66430;BME280;53242;51.694;10.006;2023-12-14T00:52:23;98591.84;;;5.86;100.00
66430;BME280;53242;51.694;10.006;2023-12-14T00:54:45;98597.66;;;5.81;100.00
66430;BME280;53242;51.694;10.006;2023-12-14T00:57:08;98599.28;;;5.82;100.00
66430;BME280;53242;51.694;10.006;2023-12-14T00:59:30;98608.31;;;5.80;100.00
66430;BME280;53242;51.694;10.006;2023-12-14T01:01:53;98613.91;;;5.76;100.00
66430;BME280;53242;51.694;10.006;2023-12-14T01:04:15;98624.56;;;5.75;100.00
66430;BME280;53242;51.694;10.006;2023-12-14T01:06:37;98628.34;;;5.87;100.00
66430;BME280;53242;51.694;10.006;2023-12-14T01:09:00;98631.31;;;5.84;100.00
66430;BME280;53242;51.694;10.006;2023-12-14T01:11:22;98640.53;;;5.80;100.00
66430;BME280;53242;51.694;10.006;2023-12-14T01:13:45;98644.97;;;5.80;100.00
66430;BME280;53242;51.694;10.006;2023-12-14T01:16:07;98645.91;;;5.72;100.00
66430;BME280;53242;51.694;10.006;2023-12-14T01:18:30;98651.00;;;5.80;100.00
66430;BME280;53242;51.694;10.006;2023-12-14T01:20:52;98653.09;;;5.85;100.00
66430;BME280;53242;51.694;10.006;2023-12-14T01:23:14;98661.09;;;5.83;100.00
66430;BME280;53242;51.694;10.006;2023-12-14T01:25:37;98669.16;;;5.82;100.00
66430;BME280;53242;51.694;10.006;2023-12-14T01:27:59;98670.63;;;5.69;100.00
66430;BME280;53242;51.694;10.006;2023-12-14T01:30:22;98675.56;;;5.79;100.00
66430;BME280;53242;51.694;10.006;2023-12-14T01:32:44;98678.44;;;5.84;100.00
66430;BME280;53242;51.694;10.006;2023-12-14T01:35:07;98692.50;;;5.62;100.00
66430;BME280;53242;51.694;10.006;2023-12-14T01:37:29;98695.72;;;5.64;100.00
66430;BME280;53242;51.694;10.006;2023-12-14T01:39:52;98695.91;;;5.62;100.00
66430;BME280;53242;51.694;10.006;2023-12-14T01:42:14;98692.75;;;5.67;100.00
66430;BME280;53242;51.694;10.006;2023-12-14T01:44:36;98696.28;;;5.59;100.00
66430;BME280;53242;51.694;10.006;2023-12-14T01:46:59;98706.75;;;5.59;100.00
66430;BME280;53242;51.694;10.006;2023-12-14T01:49:21;98711.25;;;5.65;100.00
66430;BME280;53242;51.694;10.006;2023-12-14T01:51:44;98707.38;;;5.61;100.00
66430;BME280;53242;51.694;10.006;2023-12-14T01:54:06;98718.03;;;5.59;100.00
66430;BME280;53242;51.694;10.006;2023-12-14T01:56:28;98719.00;;;5.58;100.00
66430;BME280;53242;51.694;10.006;2023-12-14T01:58:51;98720.47;;;5.61;100.00
66430;BME280;53242;51.694;10.006;2023-12-14T02:01:24;98718.28;;;5.65;100.00
66430;BME280;53242;51.694;10.006;2023-12-14T02:03:51;98721.44;;;5.60;100.00
66430;BME280;53242;51.694;10.006;2023-12-14T02:06:15;98731.75;;;5.47;100.00
66430;BME280;53242;51.694;10.006;2023-12-14T02:08:37;98722.00;;;5.55;100.00
66430;BME280;53242;51.694;10.006;2023-12-14T02:11:00;98725.88;;;5.44;100.00
66430;BME280;53242;51.694;10.006;2023-12-14T02:13:22;98726.94;;;5.65;100.00
66430;BME280;53242;51.694;10.006;2023-12-14T02:15:45;98735.53;;;5.44;100.00
66430;BME280;53242;51.694;10.006;2023-12-14T02:18:07;98746.47;;;5.48;100.00
66430;BME280;53242;51.694;10.006;2023-12-14T02:20:30;98748.63;;;5.59;100.00
66430;BME280;53242;51.694;10.006;2023-12-14T02:22:55;98748.91;;;5.49;100.00
66430;BME280;53242;51.694;10.006;2023-12-14T02:25:19;98750.16;;;5.38;100.00
66430;BME280;53242;51.694;10.006;2023-12-14T02:27:41;98750.25;;;5.45;100.00
66430;BME280;53242;51.694;10.006;2023-12-14T02:30:04;98756.84;;;5.41;100.00
66430;BME280;53242;51.694;10.006;2023-12-14T02:32:26;98752.94;;;5.37;100.00
66430;BME280;53242;51.694;10.006;2023-12-14T02:34:48;98753.13;;;5.35;100.00
66430;BME280;53242;51.694;10.006;2023-12-14T02:37:11;98758.72;;;5.47;100.00
66430;BME280;53242;51.694;10.006;2023-12-14T02:39:33;98742.13;;;5.40;100.00
66430;BME280;53242;51.694;10.006;2023-12-14T02:41:56;98755.63;;;5.29;100.00
66430;BME280;53242;51.694;10.006;2023-12-14T02:44:18;98767.75;;;5.44;100.00
66430;BME280;53242;51.694;10.006;2023-12-14T02:46:40;98762.78;;;5.35;100.00
66430;BME280;53242;51.694;10.006;2023-12-14T02:49:03;98762.78;;;5.35;100.00
66430;BME280;53242;51.694;10.006;2023-12-14T02:51:25;98768.72;;;5.29;100.00
66430;BME280;53242;51.694;10.006;2023-12-14T02:53:48;98764.66;;;5.26;100.00
66430;BME280;53242;51.694;10.006;2023-12-14T02:56:10;98780.00;;;5.29;100.00
66430;BME280;53242;51.694;10.006;2023-12-14T02:58:33;98781.72;;;5.37;100.00
66430;BME280;53242;51.694;10.006;2023-12-14T03:00:55;98788.84;;;5.28;100.00
66430;BME280;53242;51.694;10.006;2023-12-14T03:03:18;98785.22;;;5.29;100.00
66430;BME280;53242;51.694;10.006;2023-12-14T03:05:40;98792.78;;;5.24;100.00
66430;BME280;53242;51.694;10.006;2023-12-14T03:08:03;98800.16;;;5.20;100.00
66430;BME280;53242;51.694;10.006;2023-12-14T03:10:25;98794.94;;;5.20;100.00
66430;BME280;53242;51.694;10.006;2023-12-14T03:12:47;98807.69;;;5.23;100.00
66430;BME280;53242;51.694;10.006;2023-12-14T03:15:10;98804.31;;;5.15;100.00
66430;BME280;53242;51.694;10.006;2023-12-14T03:17:32;98804.69;;;5.26;100.00
66430;BME280;53242;51.694;10.006;2023-12-14T03:19:55;98815.47;;;5.08;100.00
66430;BME280;53242;51.694;10.006;2023-12-14T03:22:17;98823.16;;;5.10;100.00
66430;BME280;53242;51.694;10.006;2023-12-14T03:24:40;98823.00;;;5.12;100.00
66430;BME280;53242;51.694;10.006;2023-12-14T03:27:03;98827.66;;;5.01;100.00
66430;BME280;53242;51.694;10.006;2023-12-14T03:29:26;98831.47;;;5.14;100.00
66430;BME280;53242;51.694;10.006;2023-12-14T03:31:49;98840.13;;;5.14;100.00
66430;BME280;53242;51.694;10.006;2023-12-14T03:34:12;98839.03;;;5.08;100.00
66430;BME280;53242;51.694;10.006;2023-12-14T03:36:34;98849.56;;;5.00;100.00
66430;BME280;53242;51.694;10.006;2023-12-14T03:38:57;98853.56;;;5.11;100.00
66430;BME280;53242;51.694;10.006;2023-12-14T03:41:19;98862.03;;;5.13;100.00
66430;BME280;53242;51.694;10.006;2023-12-14T03:43:42;98862.38;;;5.10;100.00
66430;BME280;53242;51.694;10.006;2023-12-14T03:46:04;98864.59;;;5.21;100.00
66430;BME280;53242;51.694;10.006;2023-12-14T03:48:28;98867.56;;;5.18;100.00
66430;BME280;53242;51.694;10.006;2023-12-14T03:50:50;98882.91;;;4.98;100.00
66430;BME280;53242;51.694;10.006;2023-12-14T03:53:13;98872.78;;;4.95;100.00
66430;BME280;53242;51.694;10.006;2023-12-14T03:55:35;98868.19;;;4.97;100.00
66430;BME280;53242;51.694;10.006;2023-12-14T03:57:57;98873.47;;;4.89;100.00
66430;BME280;53242;51.694;10.006;2023-12-14T04:00:20;98880.91;;;4.77;100.00
66430;BME280;53242;51.694;10.006;2023-12-14T04:02:43;98882.13;;;4.89;100.00
66430;BME280;53242;51.694;10.006;2023-12-14T04:05:09;98877.00;;;4.73;100.00
66430;BME280;53242;51.694;10.006;2023-12-14T04:07:31;98889.38;;;4.79;100.00
66430;BME280;53242;51.694;10.006;2023-12-14T04:09:53;98882.66;;;4.85;100.00
66430;BME280;53242;51.694;10.006;2023-12-14T04:12:16;98886.75;;;4.79;100.00
66430;BME280;53242;51.694;10.006;2023-12-14T04:14:38;98895.31;;;4.73;100.00
66430;BME280;53242;51.694;10.006;2023-12-14T04:17:01;98896.00;;;4.67;100.00
66430;BME280;53242;51.694;10.006;2023-12-14T04:19:23;98910.28;;;4.79;100.00
66430;BME280;53242;51.694;10.006;2023-12-14T04:21:45;98908.31;;;4.81;100.00
66430;BME280;53242;51.694;10.006;2023-12-14T04:24:08;98923.06;;;4.74;100.00
66430;BME280;53242;51.694;10.006;2023-12-14T04:26:31;98924.25;;;4.63;100.00
66430;BME280;53242;51.694;10.006;2023-12-14T04:28:53;98927.59;;;4.49;100.00
66430;BME280;53242;51.694;10.006;2023-12-14T04:31:16;98929.97;;;4.58;100.00
66430;BME280;53242;51.694;10.006;2023-12-14T04:33:38;98938.53;;;4.52;100.00
66430;BME280;53242;51.694;10.006;2023-12-14T04:36:01;98952.88;;;4.56;100.00
66430;BME280;53242;51.694;10.006;2023-12-14T04:38:24;98956.19;;;4.42;100.00
66430;BME280;53242;51.694;10.006;2023-12-14T04:40:46;98956.50;;;4.47;100.00
66430;BME280;53242;51.694;10.006;2023-12-14T04:43:08;98949.81;;;4.44;100.00
66430;BME280;53242;51.694;10.006;2023-12-14T04:45:31;98956.34;;;4.49;100.00
66430;BME280;53242;51.694;10.006;2023-12-14T04:47:53;98955.50;;;4.48;100.00
66430;BME280;53242;51.694;10.006;2023-12-14T04:50:16;98959.13;;;4.47;100.00
66430;BME280;53242;51.694;10.006;2023-12-14T04:52:38;98949.66;;;4.38;100.00
66430;BME280;53242;51.694;10.006;2023-12-14T04:55:00;98960.09;;;4.38;100.00
66430;BME280;53242;51.694;10.006;2023-12-14T04:57:23;98966.47;;;4.43;100.00
66430;BME280;53242;51.694;10.006;2023-12-14T04:59:45;98974.94;;;4.45;100.00
66430;BME280;53242;51.694;10.006;2023-12-14T05:02:08;98988.00;;;4.45;100.00
66430;BME280;53242;51.694;10.006;2023-12-14T05:04:30;98990.16;;;4.42;100.00
66430;BME280;53242;51.694;10.006;2023-12-14T05:06:52;98998.97;;;4.33;100.00
66430;BME280;53242;51.694;10.006;2023-12-14T05:09:15;99007.97;;;4.38;100.00
66430;BME280;53242;51.694;10.006;2023-12-14T05:11:39;99018.59;;;4.28;100.00
66430;BME280;53242;51.694;10.006;2023-12-14T05:14:02;99014.03;;;4.14;100.00
66430;BME280;53242;51.694;10.006;2023-12-14T05:16:25;99020.38;;;4.20;100.00
66430;BME280;53242;51.694;10.006;2023-12-14T05:18:48;99022.84;;;4.13;100.00
66430;BME280;53242;51.694;10.006;2023-12-14T05:21:16;99020.56;;;4.10;100.00
66430;BME280;53242;51.694;10.006;2023-12-14T05:23:39;99026.91;;;4.16;100.00
66430;BME280;53242;51.694;10.006;2023-12-14T05:26:02;99031.66;;;4.20;100.00
66430;BME280;53242;51.694;10.006;2023-12-14T05:28:24;99025.44;;;4.13;100.00
66430;BME280;53242;51.694;10.006;2023-12-14T05:30:47;99037.38;;;4.07;100.00
66430;BME280;53242;51.694;10.006;2023-12-14T05:33:09;99034.09;;;4.05;100.00
66430;BME280;53242;51.694;10.006;2023-12-14T05:35:31;99042.75;;;4.22;100.00
66430;BME280;53242;51.694;10.006;2023-12-14T05:37:54;99046.19;;;4.23;100.00
66430;BME280;53242;51.694;10.006;2023-12-14T05:40:16;99054.19;;;4.21;100.00
66430;BME280;53242;51.694;10.006;2023-12-14T05:42:39;99049.28;;;4.10;100.00
66430;BME280;53242;51.694;10.006;2023-12-14T05:45:01;99054.53;;;4.10;100.00
66430;BME280;53242;51.694;10.006;2023-12-14T05:47:26;99061.69;;;4.00;100.00
66430;BME280;53242;51.694;10.006;2023-12-14T05:49:48;99065.44;;;3.97;100.00
66430;BME280;53242;51.694;10.006;2023-12-14T05:52:11;99074.25;;;3.88;100.00
66430;BME280;53242;51.694;10.006;2023-12-14T05:54:35;99062.84;;;3.97;100.00
66430;BME280;53242;51.694;10.006;2023-12-14T05:56:58;99073.91;;;3.99;99.84
66430;BME280;53242;51.694;10.006;2023-12-14T05:59:20;99073.44;;;3.95;99.69
66430;BME280;53242;51.694;10.006;2023-12-14T06:01:43;99084.38;;;3.91;99.84
66430;BME280;53242;51.694;10.006;2023-12-14T06:04:05;99085.69;;;4.03;98.97
66430;BME280;53242;51.694;10.006;2023-12-14T06:06:28;99098.72;;;3.87;99.45
66430;BME280;53242;51.694;10.006;2023-12-14T06:08:50;99100.38;;;3.88;99.25
66430;BME280;53242;51.694;10.006;2023-12-14T06:11:13;99110.13;;;3.86;99.58
66430;BME280;53242;51.694;10.006;2023-12-14T06:13:35;99116.66;;;3.82;99.65
66430;BME280;53242;51.694;10.006;2023-12-14T06:15:58;99125.47;;;3.81;99.64
66430;BME280;53242;51.694;10.006;2023-12-14T06:18:20;99124.31;;;3.83;99.79
66430;BME280;53242;51.694;10.006;2023-12-14T06:20:42;99123.66;;;3.81;99.32
66430;BME280;53242;51.694;10.006;2023-12-14T06:23:05;99126.94;;;3.91;99.34
66430;BME280;53242;51.694;10.006;2023-12-14T06:25:27;99123.84;;;3.88;99.71
66430;BME280;53242;51.694;10.006;2023-12-14T06:27:50;99125.81;;;3.94;99.49
66430;BME280;53242;51.694;10.006;2023-12-14T06:30:13;99132.38;;;3.98;99.51
66430;BME280;53242;51.694;10.006;2023-12-14T06:32:36;99145.22;;;3.91;99.42
66430;BME280;53242;51.694;10.006;2023-12-14T06:34:58;99142.81;;;3.98;99.21
66430;BME280;53242;51.694;10.006;2023-12-14T06:37:20;99146.06;;;4.00;99.31
66430;BME280;53242;51.694;10.006;2023-12-14T06:39:43;99151.44;;;4.07;98.56
66430;BME280;53242;51.694;10.006;2023-12-14T06:42:06;99155.69;;;4.00;98.70
66430;BME280;53242;51.694;10.006;2023-12-14T06:44:28;99157.97;;;3.94;99.11
66430;BME280;53242;51.694;10.006;2023-12-14T06:46:52;99155.88;;;4.06;98.39
66430;BME280;53242;51.694;10.006;2023-12-14T06:49:15;99158.47;;;3.98;98.70
66430;BME280;53242;51.694;10.006;2023-12-14T06:51:37;99169.06;;;3.97;98.88
66430;BME280;53242;51.694;10.006;2023-12-14T06:53:59;99170.88;;;3.96;98.62
66430;BME280;53242;51.694;10.006;2023-12-14T06:56:22;99177.22;;;3.93;98.77
66430;BME280;53242;51.694;10.006;2023-12-14T06:58:44;99183.13;;;4.12;98.21
66430;BME280;53242;51.694;10.006;2023-12-14T07:01:08;99190.31;;;4.18;98.00
66430;BME280;53242;51.694;10.006;2023-12-14T07:03:33;99187.22;;;4.06;97.92
66430;BME280;53242;51.694;10.006;2023-12-14T07:05:57;99190.81;;;4.22;97.91
66430;BME280;53242;51.694;10.006;2023-12-14T07:08:20;99186.91;;;4.26;97.57
66430;BME280;53242;51.694;10.006;2023-12-14T07:10:42;99191.84;;;4.29;97.38
66430;BME280;53242;51.694;10.006;2023-12-14T07:13:04;99192.31;;;4.24;97.54
66430;BME280;53242;51.694;10.006;2023-12-14T07:15:27;99199.63;;;4.21;97.70
66430;BME280;53242;51.694;10.006;2023-12-14T07:17:49;99204.69;;;4.22;97.85
66430;BME280;53242;51.694;10.006;2023-12-14T07:20:12;99205.81;;;4.11;98.02
66430;BME280;53242;51.694;10.006;2023-12-14T07:22:34;99204.03;;;4.12;98.18
66430;BME280;53242;51.694;10.006;2023-12-14T07:24:57;99215.47;;;4.11;98.16
66430;BME280;53242;51.694;10.006;2023-12-14T07:27:19;99214.78;;;4.01;98.46
66430;BME280;53242;51.694;10.006;2023-12-14T07:29:41;99226.72;;;4.03;98.55
66430;BME280;53242;51.694;10.006;2023-12-14T07:32:04;99234.03;;;4.00;98.83
66430;BME280;53242;51.694;10.006;2023-12-14T07:34:26;99240.22;;;3.99;99.15
66430;BME280;53242;51.694;10.006;2023-12-14T07:36:50;99245.28;;;3.92;99.46
66430;BME280;53242;51.694;10.006;2023-12-14T07:39:12;99253.00;;;4.10;99.59
66430;BME280;53242;51.694;10.006;2023-12-14T07:41:35;99247.44;;;4.05;98.86
66430;BME280;53242;51.694;10.006;2023-12-14T07:43:57;99254.13;;;4.07;99.26
66430;BME280;53242;51.694;10.006;2023-12-14T07:46:20;99261.81;;;4.17;99.05
66430;BME280;53242;51.694;10.006;2023-12-14T07:48:43;99270.84;;;4.23;99.24
66430;BME280;53242;51.694;10.006;2023-12-14T07:51:05;99277.16;;;4.12;99.27
66430;BME280;53242;51.694;10.006;2023-12-14T07:53:27;99281.09;;;4.16;99.27
66430;BME280;53242;51.694;10.006;2023-12-14T07:55:50;99281.59;;;4.20;99.07
66430;BME280;53242;51.694;10.006;2023-12-14T07:58:12;99285.63;;;4.06;99.41
66430;BME280;53242;51.694;10.006;2023-12-14T08:00:35;99287.06;;;4.00;99.86
66430;BME280;53242;51.694;10.006;2023-12-14T08:02:57;99284.19;;;4.20;99.54
66430;BME280;53242;51.694;10.006;2023-12-14T08:05:20;99291.69;;;4.15;99.34
66430;BME280;53242;51.694;10.006;2023-12-14T08:07:42;99293.94;;;4.01;99.57
66430;BME280;53242;51.694;10.006;2023-12-14T08:10:05;99304.69;;;3.98;99.57
66430;BME280;53242;51.694;10.006;2023-12-14T08:12:27;99312.03;;;3.94;100.00
66430;BME280;53242;51.694;10.006;2023-12-14T08:14:50;99319.50;;;3.89;100.00
66430;BME280;53242;51.694;10.006;2023-12-14T08:17:12;99314.66;;;4.03;99.94
66430;BME280;53242;51.694;10.006;2023-12-14T08:19:35;99321.06;;;4.08;100.00
66430;BME280;53242;51.694;10.006;2023-12-14T08:21:57;99324.22;;;4.20;99.88
66430;BME280;53242;51.694;10.006;2023-12-14T08:24:20;99324.72;;;4.24;99.72
66430;BME280;53242;51.694;10.006;2023-12-14T08:26:42;99336.50;;;4.28;99.89
66430;BME280;53242;51.694;10.006;2023-12-14T08:29:04;99344.31;;;4.28;99.44
66430;BME280;53242;51.694;10.006;2023-12-14T08:31:27;99341.09;;;4.34;99.24
66430;BME280;53242;51.694;10.006;2023-12-14T08:33:49;99352.28;;;4.18;99.74
66430;BME280;53242;51.694;10.006;2023-12-14T08:36:15;99358.25;;;4.37;99.65
66430;BME280;53242;51.694;10.006;2023-12-14T08:38:38;99367.84;;;4.28;99.63
66430;BME280;53242;51.694;10.006;2023-12-14T08:41:00;99363.91;;;4.24;99.87
66430;BME280;53242;51.694;10.006;2023-12-14T08:43:23;99365.50;;;4.17;100.00
66430;BME280;53242;51.694;10.006;2023-12-14T08:45:45;99367.59;;;4.13;100.00
66430;BME280;53242;51.694;10.006;2023-12-14T08:48:08;99375.59;;;4.11;100.00
66430;BME280;53242;51.694;10.006;2023-12-14T08:50:30;99383.66;;;3.92;100.00
66430;BME280;53242;51.694;10.006;2023-12-14T08:52:52;99395.09;;;3.99;100.00
66430;BME280;53242;51.694;10.006;2023-12-14T08:55:15;99391.63;;;3.90;100.00
66430;BME280;53242;51.694;10.006;2023-12-14T08:57:38;99402.38;;;3.87;100.00
66430;BME280;53242;51.694;10.006;2023-12-14T09:00:01;99408.38;;;4.06;100.00
66430;BME280;53242;51.694;10.006;2023-12-14T09:02:26;99421.13;;;3.83;100.00
66430;BME280;53242;51.694;10.006;2023-12-14T09:04:49;99421.56;;;4.04;100.00
66430;BME280;53242;51.694;10.006;2023-12-14T09:07:11;99429.28;;;4.06;100.00
66430;BME280;53242;51.694;10.006;2023-12-14T09:09:33;99436.69;;;3.92;100.00
66430;BME280;53242;51.694;10.006;2023-12-14T09:11:56;99437.50;;;3.93;100.00
66430;BME280;53242;51.694;10.006;2023-12-14T09:14:18;99448.44;;;3.97;100.00
66430;BME280;53242;51.694;10.006;2023-12-14T09:16:41;99453.38;;;4.00;100.00
66430;BME280;53242;51.694;10.006;2023-12-14T09:19:03;99462.34;;;3.97;100.00
66430;BME280;53242;51.694;10.006;2023-12-14T09:21:25;99462.50;;;3.95;100.00
66430;BME280;53242;51.694;10.006;2023-12-14T09:23:48;99460.84;;;3.94;100.00
66430;BME280;53242;51.694;10.006;2023-12-14T09:26:10;99458.69;;;3.90;100.00
66430;BME280;53242;51.694;10.006;2023-12-14T09:28:33;99467.97;;;3.84;100.00
66430;BME280;53242;51.694;10.006;2023-12-14T09:30:55;99469.25;;;3.80;100.00
66430;BME280;53242;51.694;10.006;2023-12-14T09:33:18;99478.09;;;3.87;100.00
66430;BME280;53242;51.694;10.006;2023-12-14T09:35:40;99478.41;;;3.84;100.00
66430;BME280;53242;51.694;10.006;2023-12-14T09:38:04;99491.66;;;3.91;100.00
66430;BME280;53242;51.694;10.006;2023-12-14T09:40:26;99492.66;;;3.72;100.00
66430;BME280;53242;51.694;10.006;2023-12-14T09:42:48;99502.44;;;3.70;100.00
66430;BME280;53242;51.694;10.006;2023-12-14T09:45:11;99499.13;;;3.68;100.00
66430;BME280;53242;51.694;10.006;2023-12-14T09:47:34;99501.38;;;3.62;100.00
66430;BME280;53242;51.694;10.006;2023-12-14T09:49:58;99508.41;;;3.62;100.00
66430;BME280;53242;51.694;10.006;2023-12-14T09:52:21;99510.69;;;3.65;100.00
66430;BME280;53242;51.694;10.006;2023-12-14T09:54:43;99506.81;;;3.69;100.00
66430;BME280;53242;51.694;10.006;2023-12-14T09:57:06;99513.16;;;3.85;100.00
66430;BME280;53242;51.694;10.006;2023-12-14T09:59:28;99516.81;;;3.74;100.00
66430;BME280;53242;51.694;10.006;2023-12-14T10:01:51;99512.94;;;3.78;100.00
66430;BME280;53242;51.694;10.006;2023-12-14T10:04:15;99515.47;;;3.88;99.82
66430;BME280;53242;51.694;10.006;2023-12-14T10:06:43;99511.59;;;3.92;99.48
66430;BME280;53242;51.694;10.006;2023-12-14T10:09:06;99521.28;;;4.00;99.19
66430;BME280;53242;51.694;10.006;2023-12-14T10:11:32;99534.78;;;3.95;99.19
66430;BME280;53242;51.694;10.006;2023-12-14T10:13:54;99535.66;;;4.04;98.87
66430;BME280;53242;51.694;10.006;2023-12-14T10:16:31;99531.25;;;4.04;98.74
66430;BME280;53242;51.694;10.006;2023-12-14T10:18:54;99530.97;;;4.07;98.49
66430;BME280;53242;51.694;10.006;2023-12-14T10:21:17;99525.66;;;3.99;98.75
66430;BME280;53242;51.694;10.006;2023-12-14T10:23:39;99528.19;;;4.09;98.62
66430;BME280;53242;51.694;10.006;2023-12-14T10:26:04;99532.59;;;4.26;98.08
66430;BME280;53242;51.694;10.006;2023-12-14T10:28:26;99535.09;;;4.36;97.38
66430;BME280;53242;51.694;10.006;2023-12-14T10:30:49;99533.25;;;4.28;97.64
66430;BME280;53242;51.694;10.006;2023-12-14T10:33:11;99536.16;;;4.25;97.75
66430;BME280;53242;51.694;10.006;2023-12-14T10:35:33;99541.75;;;4.31;97.43
66430;BME280;53242;51.694;10.006;2023-12-14T10:37:58;99544.78;;;4.44;97.29
66430;BME280;53242;51.694;10.006;2023-12-14T10:40:24;99542.47;;;4.41;96.94
66430;BME280;53242;51.694;10.006;2023-12-14T10:42:49;99548.06;;;4.46;96.88
66430;BME280;53242;51.694;10.006;2023-12-14T10:45:13;99552.72;;;4.34;96.94
66430;BME280;53242;51.694;10.006;2023-12-14T10:47:40;99546.09;;;4.48;96.75
66430;BME280;53242;51.694;10.006;2023-12-14T10:50:05;99550.94;;;4.17;97.38
66430;BME280;53242;51.694;10.006;2023-12-14T10:52:28;99558.84;;;4.25;97.27
66430;BME280;53242;51.694;10.006;2023-12-14T10:54:55;99548.03;;;4.20;96.94
66430;BME280;53242;51.694;10.006;2023-12-14T10:57:18;99554.63;;;4.24;96.92
66430;BME280;53242;51.694;10.006;2023-12-14T10:59:42;99558.94;;;4.15;97.44
66430;BME280;53242;51.694;10.006;2023-12-14T11:02:09;99565.56;;;4.27;96.91
66430;BME280;53242;51.694;10.006;2023-12-14T11:04:57;99571.25;;;4.23;96.84
66430;BME280;53242;51.694;10.006;2023-12-14T11:07:44;99576.63;;;4.21;97.54
66430;BME280;53242;51.694;10.006;2023-12-14T11:10:07;99580.22;;;4.20;97.73
66430;BME280;53242;51.694;10.006;2023-12-14T11:12:29;99581.63;;;4.15;97.81
66430;BME280;53242;51.694;10.006;2023-12-14T11:14:52;99591.09;;;4.16;98.22
66430;BME280;53242;51.694;10.006;2023-12-14T11:17:14;99598.72;;;4.09;98.94
66430;BME280;53242;51.694;10.006;2023-12-14T11:19:37;99599.91;;;4.15;98.62
66430;BME280;53242;51.694;10.006;2023-12-14T11:22:12;99602.66;;;4.13;98.68
66430;BME280;53242;51.694;10.006;2023-12-14T11:24:37;99603.25;;;4.07;98.46
66430;BME280;53242;51.694;10.006;2023-12-14T11:27:06;99606.34;;;4.02;98.41
66430;BME280;53242;51.694;10.006;2023-12-14T11:29:28;99612.59;;;4.09;98.28
66430;BME280;53242;51.694;10.006;2023-12-14T11:31:51;99611.41;;;4.04;98.01
66430;BME280;53242;51.694;10.006;2023-12-14T11:34:17;99612.38;;;4.03;97.82
66430;BME280;53242;51.694;10.006;2023-12-14T11:36:39;99607.84;;;4.05;97.20
66430;BME280;53242;51.694;10.006;2023-12-14T11:39:03;99625.59;;;4.19;97.31
66430;BME280;53242;51.694;10.006;2023-12-14T11:41:27;99630.00;;;4.19;97.40
66430;BME280;53242;51.694;10.006;2023-12-14T11:43:51;99629.38;;;4.07;97.54
66430;BME280;53242;51.694;10.006;2023-12-14T11:46:14;99639.91;;;3.97;97.94
66430;BME280;53242;51.694;10.006;2023-12-14T11:48:37;99640.72;;;3.98;97.91
66430;BME280;53242;51.694;10.006;2023-12-14T11:51:00;99636.72;;;4.03;97.74
66430;BME280;53242;51.694;10.006;2023-12-14T11:53:23;99634.53;;;3.99;97.50
66430;BME280;53242;51.694;10.006;2023-12-14T11:55:46;99646.31;;;4.03;97.92
66430;BME280;53242;51.694;10.006;2023-12-14T11:58:09;99644.41;;;4.05;97.98
66430;BME280;53242;51.694;10.006;2023-12-14T12:00:34;99649.09;;;4.01;97.92
66430;BME280;53242;51.694;10.006;2023-12-14T12:03:13;99640.81;;;4.06;97.81
66430;BME280;53242;51.694;10.006;2023-12-14T12:05:37;99652.66;;;4.00;97.89
66430;BME280;53242;51.694;10.006;2023-12-14T12:08:00;99649.91;;;4.20;97.62
66430;BME280;53242;51.694;10.006;2023-12-14T12:10:23;99645.81;;;4.17;97.46
66430;BME280;53242;51.694;10.006;2023-12-14T12:12:45;99652.31;;;4.31;97.13
66430;BME280;53242;51.694;10.006;2023-12-14T12:15:08;99652.53;;;4.20;97.33
66430;BME280;53242;51.694;10.006;2023-12-14T12:17:30;99655.06;;;4.30;97.55
66430;BME280;53242;51.694;10.006;2023-12-14T12:19:59;99664.63;;;4.39;97.51
66430;BME280;53242;51.694;10.006;2023-12-14T12:22:21;99655.66;;;4.23;97.32
66430;BME280;53242;51.694;10.006;2023-12-14T12:24:44;99656.41;;;4.34;97.40
66430;BME280;53242;51.694;10.006;2023-12-14T12:27:06;99663.72;;;4.30;97.65
66430;BME280;53242;51.694;10.006;2023-12-14T12:29:31;99659.59;;;4.27;97.84
66430;BME280;53242;51.694;10.006;2023-12-14T12:31:53;99661.78;;;4.32;97.78